createdAt,value
2017-08-04T00:00:08.548Z,18.27
2017-08-04T00:01:08.036Z,18.32
2017-08-04T00:02:08.072Z,18.29
2017-08-04T00:03:08.829Z,18.32
2017-08-04T00:04:08.860Z,18.23
2017-08-04T00:05:08.894Z,18.27
2017-08-04T00:06:08.635Z,18.19
2017-08-04T00:07:09.372Z,18.24
2017-08-04T00:08:09.093Z,18.14
2017-08-04T00:09:09.544Z,18.16
2017-08-04T00:10:09.638Z,18.17
2017-08-04T00:11:09.594Z,18.21
2017-08-04T00:12:09.956Z,18.2
2017-08-04T00:13:09.993Z,18.21
2017-08-04T00:14:09.720Z,18.17
2017-08-04T00:15:10.110Z,18.21
2017-08-04T00:16:10.098Z,18.17
2017-08-04T00:17:10.134Z,18.24
2017-08-04T00:18:10.171Z,18.26
2017-08-04T00:19:10.215Z,18.2
2017-08-04T00:20:10.242Z,18.21
2017-08-04T00:21:10.273Z,18.34
2017-08-04T00:22:10.312Z,18.35
2017-08-04T00:23:10.751Z,18.35
2017-08-04T00:24:10.782Z,18.49
2017-08-04T00:25:10.834Z,18.59
2017-08-04T00:26:10.949Z,18.66
2017-08-04T00:27:10.973Z,18.78
2017-08-04T00:28:11.031Z,18.78
2017-08-04T00:29:11.057Z,18.84
2017-08-04T00:30:11.089Z,18.93
2017-08-04T00:31:11.126Z,18.87
2017-08-04T00:32:10.853Z,19.05
2017-08-04T00:33:11.287Z,19.02
2017-08-04T00:34:11.641Z,18.99
2017-08-04T00:35:11.462Z,19.02
2017-08-04T00:36:11.717Z,19.13
2017-08-04T00:37:11.747Z,19.16
2017-08-04T00:38:11.782Z,19.15
2017-08-04T00:39:11.486Z,19.07
2017-08-04T00:40:11.943Z,19.15
2017-08-04T00:41:11.974Z,19.15
2017-08-04T00:42:12.004Z,19.07
2017-08-04T00:43:11.724Z,19.07
2017-08-04T00:44:12.076Z,19.05
2017-08-04T00:45:11.780Z,18.94
2017-08-04T00:46:12.146Z,18.93
2017-08-04T00:47:12.195Z,18.84
2017-08-04T00:48:12.224Z,19.05
2017-08-04T00:49:12.251Z,18.99
2017-08-04T00:50:12.462Z,18.94
2017-08-04T00:51:13.178Z,19.06
2017-08-04T00:52:13.214Z,19.02
2017-08-04T00:53:12.935Z,18.97
2017-08-04T00:54:13.285Z,19.07
2017-08-04T00:55:13.424Z,19.13
2017-08-04T00:56:13.357Z,19.07
2017-08-04T00:57:13.391Z,19.1
2017-08-04T00:58:13.443Z,19.15
2017-08-04T00:59:13.458Z,19.15
2017-08-04T01:00:13.493Z,19.07
2017-08-04T01:01:13.543Z,19.09
2017-08-04T01:02:13.368Z,19.09
2017-08-04T01:03:13.601Z,19.05
2017-08-04T01:04:14.017Z,18.99
2017-08-04T01:05:14.057Z,19
2017-08-04T01:06:14.091Z,18.91
2017-08-04T01:07:14.128Z,18.96
2017-08-04T01:08:14.156Z,18.99
2017-08-04T01:09:14.191Z,18.89
2017-08-04T01:10:14.001Z,18.84
2017-08-04T01:11:14.268Z,18.86
2017-08-04T01:12:13.973Z,18.89
2017-08-04T01:13:14.340Z,18.87
2017-08-04T01:14:14.378Z,18.82
2017-08-04T01:15:14.410Z,18.89
2017-08-04T01:16:14.117Z,18.84
2017-08-04T01:17:14.855Z,18.79
2017-08-04T01:18:14.553Z,18.78
2017-08-04T01:19:14.922Z,18.68
2017-08-04T01:20:14.953Z,18.75
2017-08-04T01:21:15.000Z,18.68
2017-08-04T01:22:15.033Z,18.82
2017-08-04T01:23:15.057Z,18.84
2017-08-04T01:24:15.098Z,18.81
2017-08-04T01:25:14.801Z,18.87
2017-08-04T01:26:15.218Z,18.84
2017-08-04T01:27:15.261Z,18.86
2017-08-04T01:28:15.292Z,18.84
2017-08-04T01:29:15.017Z,18.94
2017-08-04T01:30:15.363Z,18.97
2017-08-04T01:31:15.401Z,19.1
2017-08-04T01:32:15.437Z,19
2017-08-04T01:33:15.456Z,19.12
2017-08-04T01:34:15.499Z,19.09
2017-08-04T01:35:15.213Z,19.12
2017-08-04T01:36:15.576Z,19.07
2017-08-04T01:37:15.610Z,19.07
2017-08-04T01:38:15.316Z,19.06
2017-08-04T01:39:15.683Z,19
2017-08-04T01:40:15.382Z,19.07
2017-08-04T01:41:15.753Z,19.05
2017-08-04T01:42:15.785Z,19.09
2017-08-04T01:43:15.810Z,19.02
2017-08-04T01:44:15.548Z,19.02
2017-08-04T01:45:15.898Z,19
2017-08-04T01:46:15.951Z,18.9
2017-08-04T01:47:15.962Z,18.89
2017-08-04T01:48:16.374Z,18.91
2017-08-04T01:49:16.417Z,18.89
2017-08-04T01:50:16.448Z,18.82
2017-08-04T01:51:16.485Z,18.78
2017-08-04T01:52:16.186Z,18.87
2017-08-04T01:53:16.557Z,18.82
2017-08-04T01:54:16.588Z,18.78
2017-08-04T01:55:16.293Z,18.87
2017-08-04T01:56:16.665Z,18.84
2017-08-04T01:57:16.381Z,18.84
2017-08-04T01:58:16.417Z,18.82
2017-08-04T01:59:17.162Z,18.81
2017-08-04T02:00:17.196Z,18.87
2017-08-04T02:01:17.220Z,18.93
2017-08-04T02:02:16.976Z,18.93
2017-08-04T02:03:17.322Z,18.94
2017-08-04T02:04:17.335Z,18.96
2017-08-04T02:05:17.370Z,19.02
2017-08-04T02:06:17.087Z,18.97
2017-08-04T02:07:17.449Z,18.97
2017-08-04T02:08:17.473Z,19.06
2017-08-04T02:09:17.189Z,18.99
2017-08-04T02:10:17.946Z,19.02
2017-08-04T02:11:17.967Z,18.94
2017-08-04T02:12:18.019Z,19
2017-08-04T02:13:18.051Z,19.07
2017-08-04T02:14:18.072Z,19.07
2017-08-04T02:15:18.116Z,19.19
2017-08-04T02:16:18.155Z,19.16
2017-08-04T02:17:18.180Z,19.19
2017-08-04T02:18:18.217Z,19.12
2017-08-04T02:19:18.272Z,19.06
2017-08-04T02:20:18.292Z,19.12
2017-08-04T02:21:18.323Z,19.12
2017-08-04T02:22:18.055Z,19.23
2017-08-04T02:23:18.399Z,19.12
2017-08-04T02:24:18.433Z,19.16
2017-08-04T02:25:18.162Z,19.23
2017-08-04T02:26:18.511Z,19.12
2017-08-04T02:27:18.545Z,19.2
2017-08-04T02:28:18.569Z,19.15
2017-08-04T02:29:18.630Z,19.24
2017-08-04T02:30:18.796Z,19.19
2017-08-04T02:31:18.687Z,19.12
2017-08-04T02:32:18.712Z,19.15
2017-08-04T02:33:18.426Z,19.1
2017-08-04T02:34:18.796Z,19.07
2017-08-04T02:35:18.935Z,19.02
2017-08-04T02:36:18.967Z,18.96
2017-08-04T02:37:19.003Z,18.9
2017-08-04T02:38:18.736Z,18.93
2017-08-04T02:39:19.068Z,18.87
2017-08-04T02:40:19.104Z,18.72
2017-08-04T02:41:19.141Z,18.71
2017-08-04T02:42:18.868Z,18.63
2017-08-04T02:43:18.878Z,18.63
2017-08-04T02:44:19.253Z,18.6
2017-08-04T02:45:19.277Z,18.6
2017-08-04T02:46:19.313Z,18.59
2017-08-04T02:47:19.361Z,18.6
2017-08-04T02:48:19.385Z,18.5
2017-08-04T02:49:19.432Z,18.38
2017-08-04T02:50:19.534Z,18.44
2017-08-04T02:51:19.956Z,18.36
2017-08-04T02:52:19.974Z,18.36
2017-08-04T02:53:19.699Z,18.39
2017-08-04T02:54:20.446Z,18.34
2017-08-04T02:55:20.473Z,18.36
2017-08-04T02:56:20.213Z,18.35
2017-08-04T02:57:20.548Z,18.35
2017-08-04T02:58:20.580Z,18.38
2017-08-04T02:59:20.617Z,18.32
2017-08-04T03:00:22.103Z,18.24
2017-08-04T03:01:20.824Z,18.32
2017-08-04T03:02:20.723Z,18.23
2017-08-04T03:03:20.760Z,18.24
2017-08-04T03:04:20.790Z,18.23
2017-08-04T03:05:20.825Z,18.2
2017-08-04T03:06:20.867Z,18.14
2017-08-04T03:07:20.571Z,18.11
2017-08-04T03:08:21.323Z,18.08
2017-08-04T03:09:21.052Z,18.06
2017-08-04T03:10:21.395Z,18.08
2017-08-04T03:11:21.427Z,17.99
2017-08-04T03:12:21.465Z,17.99
2017-08-04T03:13:21.498Z,18.02
2017-08-04T03:14:21.532Z,17.94
2017-08-04T03:15:21.669Z,17.94
2017-08-04T03:16:21.601Z,17.95
2017-08-04T03:17:21.641Z,17.92
2017-08-04T03:18:21.677Z,17.94
2017-08-04T03:19:21.707Z,17.94
2017-08-04T03:20:21.849Z,17.96
2017-08-04T03:21:21.775Z,17.98
2017-08-04T03:22:21.838Z,18.02
2017-08-04T03:23:21.856Z,18.01
2017-08-04T03:24:21.580Z,18.01
2017-08-04T03:25:22.069Z,18.03
2017-08-04T03:26:21.960Z,18.01
2017-08-04T03:27:21.997Z,17.99
2017-08-04T03:28:22.023Z,17.99
2017-08-04T03:29:22.066Z,17.96
2017-08-04T03:30:22.102Z,18.01
2017-08-04T03:31:22.130Z,17.98
2017-08-04T03:32:22.174Z,17.96
2017-08-04T03:33:22.203Z,17.99
2017-08-04T03:34:22.233Z,17.96
2017-08-04T03:35:22.273Z,18.03
2017-08-04T03:36:22.304Z,17.99
2017-08-04T03:37:22.337Z,17.95
2017-08-04T03:38:22.381Z,18.01
2017-08-04T03:39:22.081Z,17.94
2017-08-04T03:40:22.458Z,17.94
2017-08-04T03:41:22.481Z,17.94
2017-08-04T03:42:22.513Z,18.01
2017-08-04T03:43:21.917Z,17.99
2017-08-04T03:44:22.364Z,18.01
2017-08-04T03:45:22.711Z,17.92
2017-08-04T03:46:22.734Z,17.98
2017-08-04T03:47:22.981Z,17.96
2017-08-04T03:48:22.807Z,17.98
2017-08-04T03:49:22.844Z,18.02
2017-08-04T03:50:22.575Z,17.95
2017-08-04T03:51:23.325Z,17.98
2017-08-04T03:52:23.364Z,17.99
2017-08-04T03:53:23.390Z,17.96
2017-08-04T03:54:23.423Z,18.01
2017-08-04T03:55:23.465Z,18.01
2017-08-04T03:56:23.495Z,17.94
2017-08-04T03:57:23.530Z,17.99
2017-08-04T03:58:23.574Z,17.96
2017-08-04T03:59:23.602Z,17.98
2017-08-04T04:00:23.477Z,17.96
2017-08-04T04:01:23.679Z,17.98
2017-08-04T04:02:23.710Z,18.02
2017-08-04T04:03:23.738Z,17.84
2017-08-04T04:04:23.445Z,17.84
2017-08-04T04:05:23.918Z,17.92
2017-08-04T04:06:23.846Z,17.88
2017-08-04T04:07:23.556Z,17.92
2017-08-04T04:08:23.913Z,17.87
2017-08-04T04:09:23.953Z,18.02
2017-08-04T04:10:24.137Z,18.02
2017-08-04T04:11:24.024Z,18.01
2017-08-04T04:12:24.057Z,18.02
2017-08-04T04:13:23.795Z,17.95
2017-08-04T04:14:24.542Z,18.06
2017-08-04T04:15:24.582Z,18.02
2017-08-04T04:16:24.315Z,18.1
2017-08-04T04:17:24.675Z,18.1
2017-08-04T04:18:24.688Z,18.11
2017-08-04T04:19:24.719Z,18.14
2017-08-04T04:20:24.754Z,18.2
2017-08-04T04:21:24.788Z,18.23
2017-08-04T04:22:24.828Z,18.24
2017-08-04T04:23:24.859Z,18.24
2017-08-04T04:24:24.895Z,18.23
2017-08-04T04:25:24.932Z,18.31
2017-08-04T04:26:24.962Z,18.32
2017-08-04T04:27:25.001Z,18.31
2017-08-04T04:28:24.726Z,18.42
2017-08-04T04:29:25.159Z,18.42
2017-08-04T04:30:25.574Z,18.41
2017-08-04T04:31:25.933Z,18.36
2017-08-04T04:32:25.657Z,18.44
2017-08-04T04:33:25.695Z,18.5
2017-08-04T04:34:26.144Z,18.56
2017-08-04T04:35:26.214Z,18.57
2017-08-04T04:36:26.218Z,18.6
2017-08-04T04:37:26.247Z,18.6
2017-08-04T04:38:26.290Z,18.53
2017-08-04T04:39:26.321Z,18.63
2017-08-04T04:40:26.028Z,18.6
2017-08-04T04:41:26.392Z,18.56
2017-08-04T04:42:26.137Z,18.59
2017-08-04T04:43:26.468Z,18.66
2017-08-04T04:44:26.880Z,18.72
2017-08-04T04:45:26.596Z,18.69
2017-08-04T04:46:27.305Z,18.76
2017-08-04T04:47:27.344Z,18.93
2017-08-04T04:48:27.382Z,19.06
2017-08-04T04:49:27.423Z,19.06
2017-08-04T04:50:27.450Z,19.13
2017-08-04T04:51:27.482Z,19.24
2017-08-04T04:52:27.194Z,19.3
2017-08-04T04:53:27.628Z,19.32
2017-08-04T04:54:27.665Z,19.45
2017-08-04T04:55:27.697Z,19.53
2017-08-04T04:56:27.731Z,19.56
2017-08-04T04:57:27.772Z,19.72
2017-08-04T04:58:27.806Z,19.74
2017-08-04T04:59:27.836Z,19.79
2017-08-04T05:00:27.882Z,19.83
2017-08-04T05:01:27.923Z,19.93
2017-08-04T05:02:27.948Z,19.92
2017-08-04T05:03:27.992Z,20.1
2017-08-04T05:04:28.045Z,20.23
2017-08-04T05:05:28.049Z,20.32
2017-08-04T05:06:28.101Z,20.41
2017-08-04T05:07:28.135Z,20.41
2017-08-04T05:08:28.172Z,20.6
2017-08-04T05:09:27.890Z,20.79
2017-08-04T05:10:28.327Z,20.93
2017-08-04T05:11:28.359Z,21.04
2017-08-04T05:12:28.403Z,21.31
2017-08-04T05:13:28.429Z,21.37
2017-08-04T05:14:28.476Z,21.45
2017-08-04T05:15:28.514Z,21.61
2017-08-04T05:16:28.539Z,21.74
2017-08-04T05:17:28.575Z,21.74
2017-08-04T05:18:28.294Z,21.86
2017-08-04T05:19:29.026Z,21.89
2017-08-04T05:20:29.058Z,21.92
2017-08-04T05:21:29.125Z,21.96
2017-08-04T05:22:29.127Z,21.99
2017-08-04T05:23:29.228Z,21.97
2017-08-04T05:24:29.580Z,22.15
2017-08-04T05:25:29.292Z,22.14
2017-08-04T05:26:29.655Z,22.23
2017-08-04T05:27:29.689Z,22.24
2017-08-04T05:28:29.416Z,22.26
2017-08-04T05:29:29.853Z,22.27
2017-08-04T05:30:29.885Z,22.36
2017-08-04T05:31:29.927Z,22.38
2017-08-04T05:32:29.661Z,22.44
2017-08-04T05:33:29.998Z,22.41
2017-08-04T05:34:30.032Z,22.45
2017-08-04T05:35:30.081Z,22.42
2017-08-04T05:36:30.115Z,22.52
2017-08-04T05:37:29.830Z,22.48
2017-08-04T05:38:30.195Z,22.45
2017-08-04T05:39:30.236Z,22.48
2017-08-04T05:40:30.254Z,22.54
2017-08-04T05:41:30.325Z,22.55
2017-08-04T05:42:30.322Z,22.63
2017-08-04T05:43:30.442Z,22.67
2017-08-04T05:44:31.195Z,22.81
2017-08-04T05:45:31.225Z,22.96
2017-08-04T05:46:31.266Z,23.19
2017-08-04T05:47:31.311Z,23.28
2017-08-04T05:48:31.347Z,23.28
2017-08-04T05:49:31.071Z,23.21
2017-08-04T05:50:31.420Z,23.29
2017-08-04T05:51:31.456Z,23.26
2017-08-04T05:52:31.497Z,23.34
2017-08-04T05:53:31.533Z,23.24
2017-08-04T05:54:31.567Z,23.28
2017-08-04T05:55:31.613Z,23.26
2017-08-04T05:56:31.657Z,23.18
2017-08-04T05:57:31.675Z,23.18
2017-08-04T05:58:31.714Z,23.24
2017-08-04T05:59:31.753Z,23.28
2017-08-04T06:00:32.169Z,23.52
2017-08-04T06:01:32.242Z,23.44
2017-08-04T06:02:31.933Z,23.45
2017-08-04T06:03:32.710Z,23.38
2017-08-04T06:04:32.768Z,23.37
2017-08-04T06:05:32.463Z,23.18
2017-08-04T06:06:33.187Z,23.07
2017-08-04T06:07:33.227Z,22.97
2017-08-04T06:08:32.927Z,22.92
2017-08-04T06:09:33.007Z,22.88
2017-08-04T06:10:33.758Z,22.84
2017-08-04T06:11:33.794Z,22.84
2017-08-04T06:12:33.831Z,22.81
2017-08-04T06:13:33.907Z,22.76
2017-08-04T06:14:33.920Z,22.78
2017-08-04T06:15:33.946Z,22.78
2017-08-04T06:16:33.654Z,22.79
2017-08-04T06:17:33.695Z,23.01
2017-08-04T06:18:34.051Z,23.35
2017-08-04T06:19:34.101Z,23.71
2017-08-04T06:20:34.144Z,24.08
2017-08-04T06:21:34.177Z,24.45
2017-08-04T06:22:33.572Z,25.01
2017-08-04T06:23:34.313Z,25.54
2017-08-04T06:24:34.423Z,26.03
2017-08-04T06:25:35.484Z,26.38
2017-08-04T06:26:35.525Z,26.79
2017-08-04T06:27:35.563Z,27.04
2017-08-04T06:28:35.604Z,27.04
2017-08-04T06:29:35.638Z,27
2017-08-04T06:30:35.678Z,27.37
2017-08-04T06:31:35.412Z,27.79
2017-08-04T06:32:35.448Z,28.05
2017-08-04T06:33:35.793Z,28.45
2017-08-04T06:34:35.835Z,29.35
2017-08-04T06:35:35.870Z,30.34
2017-08-04T06:36:35.920Z,31.28
2017-08-04T06:37:35.950Z,32.09
2017-08-04T06:38:35.985Z,32.69
2017-08-04T06:39:36.031Z,32.74
2017-08-04T06:40:36.069Z,32.34
2017-08-04T06:41:36.118Z,31.55
2017-08-04T06:42:36.149Z,30.84
2017-08-04T06:43:36.186Z,30.26
2017-08-04T06:44:36.222Z,29.67
2017-08-04T06:45:36.280Z,29.17
2017-08-04T06:46:36.311Z,28.64
2017-08-04T06:47:36.369Z,28.24
2017-08-04T06:48:36.400Z,27.66
2017-08-04T06:49:36.428Z,27.24
2017-08-04T06:50:36.470Z,26.82
2017-08-04T06:51:36.515Z,26.5
2017-08-04T06:52:36.546Z,26.37
2017-08-04T06:53:36.281Z,26.01
2017-08-04T06:54:36.722Z,25.78
2017-08-04T06:55:36.759Z,25.62
2017-08-04T06:56:36.803Z,25.49
2017-08-04T06:57:36.840Z,25.47
2017-08-04T06:58:36.879Z,25.33
2017-08-04T06:59:36.926Z,25.26
2017-08-04T07:00:36.961Z,25.11
2017-08-04T07:01:37.002Z,25.15
2017-08-04T07:02:37.037Z,25.24
2017-08-04T07:03:36.749Z,25.39
2017-08-04T07:04:37.117Z,25.54
2017-08-04T07:05:36.839Z,26.26
2017-08-04T07:06:37.607Z,27.09
2017-08-04T07:07:37.642Z,28.2
2017-08-04T07:08:37.687Z,29.73
2017-08-04T07:09:37.721Z,30.6
2017-08-04T07:10:37.761Z,31.26
2017-08-04T07:11:37.802Z,31.74
2017-08-04T07:12:37.842Z,32.27
2017-08-04T07:13:37.880Z,32.35
2017-08-04T07:14:37.925Z,32.23
2017-08-04T07:15:37.959Z,31.94
2017-08-04T07:16:38.003Z,31.8
2017-08-04T07:17:38.045Z,31.62
2017-08-04T07:18:38.457Z,31.28
2017-08-04T07:19:38.179Z,30.85
2017-08-04T07:20:38.208Z,30.48
2017-08-04T07:21:38.266Z,30.42
2017-08-04T07:22:38.984Z,30.44
2017-08-04T07:23:39.026Z,30.42
2017-08-04T07:24:39.110Z,30.06
2017-08-04T07:25:39.856Z,29.69
2017-08-04T07:26:39.908Z,29.4
2017-08-04T07:27:39.951Z,29.01
2017-08-04T07:28:39.976Z,28.9
2017-08-04T07:29:40.022Z,28.97
2017-08-04T07:30:40.187Z,29.06
2017-08-04T07:31:40.649Z,28.98
2017-08-04T07:32:40.691Z,28.92
2017-08-04T07:33:40.413Z,28.92
2017-08-04T07:34:40.849Z,29.79
2017-08-04T07:35:40.897Z,30.86
2017-08-04T07:36:40.928Z,31.71
2017-08-04T07:37:40.655Z,32.24
2017-08-04T07:38:41.419Z,32.37
2017-08-04T07:39:41.479Z,32.56
2017-08-04T07:40:41.499Z,32.8
2017-08-04T07:41:41.528Z,33.2
2017-08-04T07:42:41.565Z,34.18
2017-08-04T07:43:41.304Z,35.31
2017-08-04T07:44:41.352Z,36.37
2017-08-04T07:45:41.367Z,37.02
2017-08-04T07:46:41.825Z,36.97
2017-08-04T07:47:41.871Z,36.7
2017-08-04T07:48:41.905Z,36.84
2017-08-04T07:49:41.309Z,37.26
2017-08-04T07:50:41.758Z,38.03
2017-08-04T07:51:42.513Z,38.68
2017-08-04T07:52:42.546Z,38.42
2017-08-04T07:53:43.191Z,37.81
2017-08-04T07:54:42.637Z,37.18
2017-08-04T07:55:42.676Z,37.23
2017-08-04T07:56:42.723Z,38.05
2017-08-04T07:57:42.451Z,38.99
2017-08-04T07:58:42.832Z,39.91
2017-08-04T07:59:42.850Z,40.47
2017-08-04T08:00:42.590Z,40.06
2017-08-04T08:01:42.947Z,39.22
2017-08-04T08:02:42.979Z,38.81
2017-08-04T08:03:43.056Z,38.97
2017-08-04T08:04:43.069Z,39.34
2017-08-04T08:05:43.110Z,39.76
2017-08-04T08:06:43.151Z,40.27
2017-08-04T08:07:43.200Z,41.01
2017-08-04T08:08:43.245Z,41.63
2017-08-04T08:09:43.290Z,42.04
2017-08-04T08:10:43.336Z,42.36
2017-08-04T08:11:43.066Z,42.63
2017-08-04T08:12:43.427Z,42.97
2017-08-04T08:13:43.461Z,43.24
2017-08-04T08:14:43.509Z,43.43
2017-08-04T08:15:43.558Z,43.33
2017-08-04T08:16:43.603Z,42.6
2017-08-04T08:17:43.655Z,41.85
2017-08-04T08:18:43.361Z,41.35
2017-08-04T08:19:43.788Z,41.35
2017-08-04T08:20:44.153Z,41.61
2017-08-04T08:21:44.191Z,42.04
2017-08-04T08:22:44.246Z,42.08
2017-08-04T08:23:43.974Z,42.04
2017-08-04T08:24:44.406Z,41.87
2017-08-04T08:25:44.146Z,41.57
2017-08-04T08:26:44.188Z,41.04
2017-08-04T08:27:44.611Z,40.28
2017-08-04T08:28:45.347Z,39.53
2017-08-04T08:29:45.091Z,38.73
2017-08-04T08:30:45.817Z,37.88
2017-08-04T08:31:45.865Z,37.23
2017-08-04T08:32:45.903Z,36.97
2017-08-04T08:33:45.956Z,37.19
2017-08-04T08:34:45.673Z,37.51
2017-08-04T08:35:45.732Z,38.1
2017-08-04T08:36:46.086Z,38.73
2017-08-04T08:37:46.152Z,38.9
2017-08-04T08:38:46.180Z,39.06
2017-08-04T08:39:45.920Z,38.8
2017-08-04T08:40:46.275Z,38.5
2017-08-04T08:41:46.323Z,38.24
2017-08-04T08:42:46.362Z,38.05
2017-08-04T08:43:46.415Z,37.57
2017-08-04T08:44:46.448Z,36.97
2017-08-04T08:45:46.499Z,36.15
2017-08-04T08:46:46.236Z,35.27
2017-08-04T08:47:46.585Z,34.45
2017-08-04T08:48:46.629Z,34.19
2017-08-04T08:49:46.666Z,34.36
2017-08-04T08:50:47.084Z,34.34
2017-08-04T08:51:47.131Z,34.21
2017-08-04T08:52:46.850Z,34.17
2017-08-04T08:53:47.215Z,34.22
2017-08-04T08:54:46.947Z,34.27
2017-08-04T08:55:47.672Z,34.61
2017-08-04T08:56:47.725Z,35.02
2017-08-04T08:57:47.751Z,35.27
2017-08-04T08:58:47.795Z,35.57
2017-08-04T08:59:47.846Z,35.64
2017-08-04T09:00:47.877Z,35.87
2017-08-04T09:01:47.731Z,36.36
2017-08-04T09:02:48.037Z,36.67
2017-08-04T09:03:48.062Z,36.63
2017-08-04T09:04:48.114Z,36.44
2017-08-04T09:05:48.111Z,36.22
2017-08-04T09:06:48.179Z,36.08
2017-08-04T09:07:47.890Z,36.17
2017-08-04T09:08:48.593Z,36.75
2017-08-04T09:09:48.437Z,37.05
2017-08-04T09:10:48.137Z,37.19
2017-08-04T09:11:48.934Z,37.23
2017-08-04T09:12:48.967Z,37.36
2017-08-04T09:13:49.008Z,37.17
2017-08-04T09:14:48.728Z,36.88
2017-08-04T09:15:49.096Z,36.65
2017-08-04T09:16:49.138Z,36.59
2017-08-04T09:17:49.185Z,36.65
2017-08-04T09:18:49.234Z,36.58
2017-08-04T09:19:48.978Z,36.43
2017-08-04T09:20:49.732Z,36.33
2017-08-04T09:21:49.780Z,36.81
2017-08-04T09:22:49.497Z,36.96
2017-08-04T09:23:49.545Z,37.15
2017-08-04T09:24:50.309Z,37.66
2017-08-04T09:25:50.025Z,38.44
2017-08-04T09:26:50.133Z,39.5
2017-08-04T09:27:50.183Z,40.75
2017-08-04T09:28:50.946Z,41.45
2017-08-04T09:29:50.993Z,41.91
2017-08-04T09:30:51.043Z,42.41
2017-08-04T09:31:51.083Z,42.83
2017-08-04T09:32:50.826Z,42.86
2017-08-04T09:33:51.272Z,42.92
2017-08-04T09:34:51.632Z,42.73
2017-08-04T09:35:51.680Z,42.04
2017-08-04T09:36:51.722Z,41.22
2017-08-04T09:37:51.431Z,40.86
2017-08-04T09:38:51.813Z,41.15
2017-08-04T09:39:51.538Z,41.28
2017-08-04T09:40:51.916Z,41.42
2017-08-04T09:41:51.642Z,41.95
2017-08-04T09:42:51.989Z,41.94
2017-08-04T09:43:52.045Z,41.85
2017-08-04T09:44:52.101Z,42.18
2017-08-04T09:45:51.836Z,42.48
2017-08-04T09:46:51.977Z,42.88
2017-08-04T09:47:52.725Z,42.26
2017-08-04T09:48:52.779Z,41.66
2017-08-04T09:49:52.826Z,41.59
2017-08-04T09:50:52.874Z,41.65
2017-08-04T09:51:52.597Z,41.91
2017-08-04T09:52:52.978Z,41.91
2017-08-04T09:53:53.021Z,41.83
2017-08-04T09:54:53.062Z,41.91
2017-08-04T09:55:53.109Z,42.23
2017-08-04T09:56:53.166Z,42.7
2017-08-04T09:57:52.904Z,43.23
2017-08-04T09:58:53.643Z,43.49
2017-08-04T09:59:53.690Z,42.71
2017-08-04T10:00:53.109Z,42.42
2017-08-04T10:01:54.464Z,42.45
2017-08-04T10:02:54.522Z,43.1
2017-08-04T10:03:54.244Z,43.81
2017-08-04T10:04:54.309Z,44.18
2017-08-04T10:05:55.049Z,44.42
2017-08-04T10:06:55.089Z,44.43
2017-08-04T10:07:54.826Z,44.52
2017-08-04T10:08:55.195Z,44.75
2017-08-04T10:09:55.244Z,44.55
2017-08-04T10:10:55.297Z,44.38
2017-08-04T10:11:55.334Z,44.43
2017-08-04T10:12:55.382Z,43.96
2017-08-04T10:13:55.437Z,43.15
2017-08-04T10:14:55.161Z,42.47
2017-08-04T10:15:55.535Z,41.94
2017-08-04T10:16:55.576Z,41.69
2017-08-04T10:17:55.986Z,40.7
2017-08-04T10:18:56.050Z,39.5
2017-08-04T10:19:56.087Z,38.43
2017-08-04T10:20:56.140Z,38.09
2017-08-04T10:21:56.191Z,37.44
2017-08-04T10:22:56.237Z,37.44
2017-08-04T10:23:56.720Z,37.96
2017-08-04T10:24:56.458Z,38.93
2017-08-04T10:25:56.494Z,40.09
2017-08-04T10:26:56.849Z,41.01
2017-08-04T10:27:56.889Z,41.47
2017-08-04T10:28:56.634Z,41.06
2017-08-04T10:29:57.400Z,40.2
2017-08-04T10:30:57.431Z,39.81
2017-08-04T10:31:57.483Z,39.99
2017-08-04T10:32:57.532Z,40.24
2017-08-04T10:33:57.568Z,40.06
2017-08-04T10:34:57.626Z,40.09
2017-08-04T10:35:57.660Z,40.22
2017-08-04T10:36:57.400Z,39.97
2017-08-04T10:37:57.427Z,39.74
2017-08-04T10:38:57.470Z,39.67
2017-08-04T10:39:57.551Z,39.56
2017-08-04T10:40:58.422Z,39.08
2017-08-04T10:41:58.196Z,38.54
2017-08-04T10:42:57.976Z,37.74
2017-08-04T10:43:58.024Z,36.96
2017-08-04T10:44:58.066Z,36.19
2017-08-04T10:45:58.487Z,35.79
2017-08-04T10:46:58.562Z,35.83
2017-08-04T10:47:58.578Z,35.96
2017-08-04T10:48:58.620Z,36.43
2017-08-04T10:49:58.335Z,36.37
2017-08-04T10:50:59.091Z,35.92
2017-08-04T10:51:58.804Z,35.61
2017-08-04T10:52:59.224Z,35.28
2017-08-04T10:53:59.274Z,34.9
2017-08-04T10:54:59.308Z,34.32
2017-08-04T10:55:59.356Z,34.15
2017-08-04T10:56:59.399Z,34.3
2017-08-04T10:57:59.553Z,34.71
2017-08-04T10:58:59.278Z,35.15
2017-08-04T10:59:59.753Z,35.92
2017-08-04T11:01:00.267Z,36.83
2017-08-04T11:02:00.305Z,37.56
2017-08-04T11:03:00.360Z,37.84
2017-08-04T11:04:00.080Z,38.02
2017-08-04T11:05:00.432Z,38.85
2017-08-04T11:06:00.476Z,39.49
2017-08-04T11:07:00.530Z,39.57
2017-08-04T11:08:00.558Z,39.16
2017-08-04T11:09:00.620Z,38.36
2017-08-04T11:10:00.648Z,37.48
2017-08-04T11:11:00.363Z,37.12
2017-08-04T11:12:00.732Z,37.36
2017-08-04T11:13:00.771Z,38.25
2017-08-04T11:14:00.508Z,38.83
2017-08-04T11:15:01.028Z,39.12
2017-08-04T11:16:01.008Z,39.27
2017-08-04T11:17:01.077Z,39.34
2017-08-04T11:18:01.836Z,39.27
2017-08-04T11:19:01.867Z,38.83
2017-08-04T11:20:02.327Z,38.28
2017-08-04T11:21:02.368Z,37.9
2017-08-04T11:22:02.409Z,37.18
2017-08-04T11:23:02.149Z,37.08
2017-08-04T11:24:02.167Z,37.44
2017-08-04T11:25:02.222Z,37.98
2017-08-04T11:26:02.255Z,38.09
2017-08-04T11:27:02.313Z,38.05
2017-08-04T11:28:02.667Z,38.2
2017-08-04T11:29:02.773Z,38.74
2017-08-04T11:30:03.201Z,38.93
2017-08-04T11:31:03.254Z,38.43
2017-08-04T11:32:03.362Z,37.41
2017-08-04T11:33:03.708Z,36.37
2017-08-04T11:34:03.443Z,35.58
2017-08-04T11:35:03.785Z,34.63
2017-08-04T11:36:03.856Z,33.85
2017-08-04T11:37:03.870Z,33.5
2017-08-04T11:38:03.607Z,33.4
2017-08-04T11:39:03.952Z,33.16
2017-08-04T11:40:04.002Z,33.05
2017-08-04T11:41:04.050Z,33.05
2017-08-04T11:42:04.072Z,33.74
2017-08-04T11:43:03.800Z,34.17
2017-08-04T11:44:04.161Z,33.93
2017-08-04T11:45:03.900Z,33.71
2017-08-04T11:46:04.305Z,33.11
2017-08-04T11:47:04.308Z,32.71
2017-08-04T11:48:04.333Z,32.31
2017-08-04T11:49:04.044Z,32.05
2017-08-04T11:50:04.581Z,31.65
2017-08-04T11:51:04.535Z,31.44
2017-08-04T11:52:04.992Z,31.15
2017-08-04T11:53:04.712Z,30.66
2017-08-04T11:54:05.062Z,30.29
2017-08-04T11:55:04.854Z,29.85
2017-08-04T11:56:04.818Z,29.5
2017-08-04T11:57:05.195Z,29.23
2017-08-04T11:58:05.230Z,29.01
2017-08-04T11:59:05.654Z,28.82
2017-08-04T12:00:05.952Z,28.63
2017-08-04T12:01:05.090Z,28.49
2017-08-04T12:02:06.177Z,28.55
2017-08-04T12:03:06.200Z,28.49
2017-08-04T12:04:06.246Z,28.41
2017-08-04T12:05:06.301Z,28.33
2017-08-04T12:06:06.015Z,28.39
2017-08-04T12:07:06.055Z,28.41
2017-08-04T12:08:06.399Z,28.38
2017-08-04T12:09:06.121Z,28.36
2017-08-04T12:10:06.561Z,28.36
2017-08-04T12:11:06.526Z,28.57
2017-08-04T12:12:06.568Z,28.48
2017-08-04T12:13:06.293Z,28.38
2017-08-04T12:14:07.027Z,28.38
2017-08-04T12:15:07.459Z,28.31
2017-08-04T12:16:07.518Z,28.43
2017-08-04T12:17:07.545Z,28.43
2017-08-04T12:18:07.253Z,28.57
2017-08-04T12:19:07.309Z,28.53
2017-08-04T12:20:08.218Z,28.67
2017-08-04T12:21:08.275Z,28.75
2017-08-04T12:22:08.286Z,28.7
2017-08-04T12:23:08.365Z,28.72
2017-08-04T12:24:08.400Z,28.57
2017-08-04T12:25:08.464Z,28.27
2017-08-04T12:26:08.462Z,28.12
2017-08-04T12:27:08.573Z,28.11
2017-08-04T12:28:08.276Z,28.09
2017-08-04T12:29:08.648Z,27.91
2017-08-04T12:30:08.414Z,27.93
2017-08-04T12:31:08.647Z,27.83
2017-08-04T12:32:08.691Z,27.75
2017-08-04T12:33:08.722Z,27.59
2017-08-04T12:34:08.762Z,27.48
2017-08-04T12:35:08.878Z,27.37
2017-08-04T12:36:08.533Z,27.33
2017-08-04T12:37:09.297Z,27.41
2017-08-04T12:38:09.748Z,27.38
2017-08-04T12:39:09.773Z,27.43
2017-08-04T12:40:09.833Z,27.59
2017-08-04T12:41:09.851Z,27.71
2017-08-04T12:42:09.890Z,27.68
2017-08-04T12:43:09.938Z,27.64
2017-08-04T12:44:09.977Z,27.52
2017-08-04T12:45:10.082Z,27.52
2017-08-04T12:46:09.814Z,27.31
2017-08-04T12:47:10.175Z,27.09
2017-08-04T12:48:10.210Z,27.05
2017-08-04T12:49:10.240Z,27.04
2017-08-04T12:50:10.286Z,27.04
2017-08-04T12:51:10.674Z,27.01
2017-08-04T12:52:10.887Z,27
2017-08-04T12:53:10.460Z,26.96
2017-08-04T12:54:10.453Z,26.89
2017-08-04T12:55:10.493Z,26.91
2017-08-04T12:56:10.189Z,26.96